Robinson, Iowa
Current Conditions -  °F | °C
As of 1:55 AM on Friday 31 Oct 2014 (Local Time) from KMXO Reporting Station
Overcast Overcast  
Wind Chill: 31°   Ceiling: 5000
Heat Index: 41°   Visibility: 10mi
Dew Point: 23°   Wind: 25mph
Humidity: 49%   Direction: 340°NNW
Pressure: 30.18"   Gusts: 37mph
Location:  42.3399°N, 91.4806°W
Report Text: KMXO 310655Z AUTO 34022G32KT 10SM SCT042 OVC050 05/M05 A3018 RMK AO2
Loading
Personal Weather Stations






























Interactive Weather Map
Tropical Storm Tracking
New forecast layout! Learn more

10-Day Weather Forecast

Advertisements
Track Severe Weather on mobile